Latest Weather Observations for Cape Sorell

IDT60801

Issued at 7:31 pm EST Monday 10 August 2020 (issued every 10 minutes, with the page automatically refreshed every 10 minutes)

About weather observations | Map of weather stations | Latest weather observations for TAS | Other Formats
Station Details ID: 097000 Name: CAPE SORELL Lat: -42.20 Lon: 145.17 Height: 19.3 m
Data from the previous 72 hours. | See also: Recent months at Cape Sorell
Date/Time
EST
Temp
°C
App
Temp
°C
Dew
Point
°C
Rel
Hum
%
Delta-T
°C
Wind Press
QNH
hPa
Press
MSL
hPa
Rain since
9am
mm
Dir  Spd
km/h
Gust
km/h
Spd
kts
Gust
kts
10/07:30pm 8.6 6.3 5.5 81 1.4 NW 7 11 4 6 1021.1 1021.1 0.0
10/07:00pm 7.8 5.5 4.6 80 1.4 NNW 6 9 3 5 1021.0 1021.0 0.0
10/06:30pm 6.9 4.7 3.3 78 1.5 ESE 4 6 2 3 1020.6 1020.6 0.0
10/06:00pm 7.7 6.4 3.9 77 1.6 CALM 0 0 0 0 1020.7 1020.7 0.0
10/05:30pm 8.2 5.6 4.2 76 1.7 SW 7 11 4 6 1020.7 1020.7 0.0
10/05:00pm 9.2 6.0 5.0 75 1.9 SW 11 17 6 9 1020.9 1020.9 0.0
10/04:30pm 9.9 7.6 5.5 74 2.0 SW 7 9 4 5 1020.7 1020.7 0.0
10/04:00pm 10.2 7.9 5.6 73 2.1 SW 7 9 4 5 1020.7 1020.7 0.0
10/03:30pm 10.8 8.2 6.2 73 2.1 SW 9 11 5 6 1020.8 1020.8 0.0
10/03:00pm 10.9 8.3 6.1 72 2.2 SW 9 13 5 7 1021.0 1021.0 0.0
10/02:30pm 10.7 8.1 6.1 73 2.1 SW 9 11 5 6 1020.9 1020.9 0.0
10/02:00pm 10.9 8.8 6.5 74 2.1 WSW 7 9 4 5 1020.8 1020.8 0.0
10/01:30pm 10.3 8.3 6.1 75 1.9 SW 6 9 3 5 1021.1 1021.1 0.0
10/01:00pm 11.6 10.3 7.7 77 1.9 NW 4 6 2 3 1021.3 1021.3 0.0
10/12:30pm 10.4 9.0 7.1 80 1.6 SW 4 6 2 3 1021.6 1021.6 0.0
10/12:00pm 10.3 8.5 7.2 81 1.5 N 6 7 3 4 1022.2 1022.2 0.0
10/11:30am 9.0 7.3 6.1 82 1.3 NE 4 7 2 4 1022.6 1022.6 0.0
10/11:00am 9.1 7.2 6.5 84 1.2 ESE 6 13 3 7 1022.8 1022.8 0.0
10/10:30am 8.7 5.4 6.5 86 1.0 ESE 13 19 7 10 1022.9 1022.9 0.0
10/10:00am 8.1 4.8 6.2 88 0.9 E 13 19 7 10 1023.6 1023.6 0.0
10/09:30am 6.5 2.1 5.0 90 0.7 E 17 24 9 13 1023.9 1023.9 0.0
10/09:00am 5.7 1.2 4.2 90 0.6 E 17 24 9 13 1024.2 1024.2 0.2
10/08:30am 5.9 1.8 4.5 91 0.6 ESE 15 20 8 11 1024.1 1024.1 0.2
10/08:00am 5.1 0.5 3.8 91 0.5 E 17 22 9 12 1024.2 1024.2 0.2
10/07:30am 4.9 0.3 3.6 91 0.5 E 17 24 9 13 1024.2 1024.2 0.2
10/07:00am 4.9 0.3 3.6 91 0.5 E 17 24 9 13 1023.9 1023.9 0.2
10/06:30am 5.1 0.9 3.8 91 0.5 E 15 20 8 11 1023.8 1023.8 0.2
10/06:00am 5.0 0.4 3.7 91 0.5 ESE 17 24 9 13 1023.5 1023.5 0.2
10/05:30am 5.0 0.4 3.8 92 0.5 E 17 20 9 11 1023.5 1023.5 0.2
10/05:00am 5.1 1.3 3.9 92 0.5 E 13 20 7 11 1023.6 1023.6 0.2
10/04:30am 5.1 1.3 3.9 92 0.5 E 13 17 7 9 1023.8 1023.8 0.2
10/04:00am 5.0 0.8 3.8 92 0.5 E 15 19 8 10 1023.6 1023.6 0.2
10/03:30am 5.2 1.4 4.0 92 0.5 E 13 19 7 10 1023.8 1023.8 0.2
10/03:00am 5.1 1.3 3.9 92 0.5 E 13 19 7 10 1024.0 1024.0 0.2
10/02:30am 4.9 1.4 3.7 92 0.5 ESE 11 15 6 8 1024.3 1024.3 0.2
10/02:00am 4.6 1.4 3.3 91 0.5 ESE 9 11 5 6 1024.2 1024.2 0.2
10/01:30am 4.4 1.2 3.1 91 0.5 ESE 9 11 5 6 1024.1 1024.1 0.2
10/01:00am 4.6 1.1 3.3 91 0.5 ESE 11 11 6 6 1023.9 1023.9 0.2
10/12:30am 4.9 1.0 3.4 90 0.6 E 13 15 7 8 1023.8 1023.8 0.2
10/12:00am 5.2 1.7 3.7 90 0.6 E 11 13 6 7 1024.0 1024.0 0.2
 
Date/Time
EST
Temp
°C
App
Temp
°C
Dew
Point
°C
Rel
Hum
%
Delta-T
°C
Wind Press
QNH
hPa
Press
MSL
hPa
Rain since
9am
mm
Dir  Spd
km/h
Gust
km/h
Spd
kts
Gust
kts
09/11:30pm 4.9 1.0 3.2 89 0.7 ENE 13 15 7 8 1023.9 1023.9 0.2
09/11:00pm 4.8 0.5 3.0 88 0.7 E 15 17 8 9 1023.9 1023.9 0.2
09/10:30pm 5.2 1.3 3.2 87 0.8 ESE 13 15 7 8 1024.0 1024.0 0.2
09/10:00pm 5.4 1.5 3.3 86 0.9 ESE 13 15 7 8 1024.1 1024.1 0.2
09/09:30pm 5.2 0.8 2.9 85 0.9 E 15 17 8 9 1024.1 1024.1 0.2
09/09:00pm 5.5 1.5 3.0 84 1.0 ESE 13 17 7 9 1024.1 1024.1 0.2
09/08:30pm 5.8 1.8 3.0 82 1.2 ESE 13 17 7 9 1024.3 1024.3 0.2
09/08:00pm 6.9 3.1 3.9 81 1.3 SE 13 20 7 11 1024.4 1024.4 0.2
09/07:30pm 8.3 3.1 5.4 82 1.3 S 22 28 12 15 1024.5 1024.5 0.2
09/07:00pm 8.0 3.1 5.1 82 1.3 SSE 20 28 11 15 1024.4 1024.4 0.2
09/06:30pm 8.0 3.1 5.1 82 1.3 S 20 28 11 15 1024.1 1024.1 0.2
09/06:00pm 8.4 2.1 5.5 82 1.3 SSW 28 33 15 18 1023.8 1023.8 0.2
09/05:30pm 8.5 2.5 5.4 81 1.4 S 26 32 14 17 1023.7 1023.7 0.2
09/05:00pm 8.8 2.5 5.5 80 1.5 S 28 33 15 18 1023.9 1023.9 0.2
09/04:30pm 9.2 2.9 5.8 79 1.6 S 28 32 15 17 1023.9 1023.9 0.2
09/04:00pm 9.5 3.2 5.9 78 1.6 SSW 28 33 15 18 1023.8 1023.8 0.2
09/03:30pm 9.9 3.3 6.1 77 1.8 SSW 30 35 16 19 1023.7 1023.7 0.2
09/03:00pm 10.4 4.3 6.5 77 1.8 SSW 28 35 15 19 1023.5 1023.5 0.2
09/02:30pm 10.8 5.9 7.1 78 1.8 SSW 22 28 12 15 1023.6 1023.6 0.2
09/02:00pm 10.9 6.5 7.4 79 1.7 SSW 20 26 11 14 1023.6 1023.6 0.2
09/01:30pm 10.7 6.5 7.4 80 1.6 SSW 19 22 10 12 1023.5 1023.5 0.0
09/01:00pm 10.6 7.2 7.7 82 1.4 SSW 15 19 8 10 1023.6 1023.6 0.0
09/12:30pm 10.5 7.5 7.7 83 1.3 SSW 13 22 7 12 1023.9 1023.9 0.0
09/12:00pm 10.8 9.2 8.2 84 1.3 SE 6 9 3 5 1024.6 1024.6 0.0
09/11:30am 9.3 6.5 6.9 85 1.1 ESE 11 13 6 7 1024.8 1024.8 0.0
09/11:00am 8.4 5.5 6.5 88 0.9 ESE 11 15 6 8 1025.1 1025.1 0.0
09/10:30am 7.5 4.1 6.1 91 0.6 ESE 13 17 7 9 1025.0 1025.0 0.0
09/10:00am 7.3 4.3 6.2 93 0.5 ESE 11 15 6 8 1025.2 1025.2 0.0
09/09:30am 6.5 3.0 5.6 94 0.4 ESE 13 17 7 9 1025.2 1025.2 0.0
09/09:00am 5.9 2.3 5.0 94 0.4 E 13 15 7 8 1025.1 1025.1 0.0
09/08:30am 5.1 1.4 4.4 95 0.3 ESE 13 17 7 9 1024.9 1024.9 0.0
09/08:00am 4.4 -0.2 3.7 95 0.3 E 17 19 9 10 1024.6 1024.6 0.0
09/07:30am 3.6 -1.1 2.9 95 0.3 E 17 19 9 10 1024.3 1024.3 0.0
09/07:00am 3.6 -0.8 2.7 94 0.4 E 15 19 8 10 1024.0 1024.0 0.0
09/06:30am 4.0 -0.3 3.1 94 0.4 ESE 15 19 8 10 1023.9 1023.9 0.0
09/06:00am 4.0 -0.3 3.1 94 0.4 ESE 15 17 8 9 1023.8 1023.8 0.0
09/05:30am 4.2 -0.1 3.2 93 0.4 ESE 15 17 8 9 1023.6 1023.6 0.0
09/05:00am 4.3 0.0 3.3 93 0.4 ESE 15 17 8 9 1023.5 1023.5 0.0
09/04:30am 4.3 0.4 3.3 93 0.4 ESE 13 15 7 8 1023.4 1023.4 0.0
09/04:00am 4.4 0.1 3.4 93 0.4 E 15 15 8 8 1023.2 1023.2 0.0
09/03:30am 4.4 0.1 3.2 92 0.5 E 15 17 8 9 1023.2 1023.2 0.0
09/03:00am 4.6 0.7 3.4 92 0.5 ESE 13 15 7 8 1023.3 1023.3 0.0
09/02:30am 4.5 -0.2 3.3 92 0.5 E 17 17 9 9 1023.3 1023.3 0.0
09/02:00am 4.7 0.0 3.4 91 0.5 E 17 19 9 10 1023.5 1023.5 0.0
09/01:30am 5.2 1.0 3.7 90 0.6 E 15 17 8 9 1023.4 1023.4 0.0
09/01:00am 5.4 1.6 3.9 90 0.6 ESE 13 15 7 8 1023.5 1023.5 0.0
09/12:30am 5.1 1.6 3.4 89 0.7 E 11 13 6 7 1023.6 1023.6 0.0
09/12:00am 5.6 2.2 3.8 88 0.8 E 11 13 6 7 1023.5 1023.5 0.0
 
Date/Time
EST
Temp
°C
App
Temp
°C
Dew
Point
°C
Rel
Hum
%
Delta-T
°C
Wind Press
QNH
hPa
Press
MSL
hPa
Rain since
9am
mm
Dir  Spd
km/h
Gust
km/h
Spd
kts
Gust
kts
08/11:30pm 5.5 2.3 3.3 86 0.9 E 9 11 5 6 1023.6 1023.6 0.0
08/11:00pm 5.6 3.0 3.3 85 1.0 SE 6 7 3 4 1023.7 1023.7 0.0
08/10:30pm 6.1 3.9 3.6 84 1.1 E 4 6 2 3 1023.9 1023.9 0.0
08/10:00pm 5.9 3.1 3.1 82 1.2 E 7 9 4 5 1023.7 1023.7 0.0
08/09:30pm 6.4 4.1 3.0 79 1.4 SE 4 6 2 3 1023.6 1023.6 0.0
08/09:00pm 6.8 3.6 3.2 78 1.5 SE 9 11 5 6 1023.4 1023.4 0.0
08/08:30pm 8.1 4.0 4.3 77 1.7 SSE 15 22 8 12 1023.2 1023.2 0.0
08/08:00pm 8.0 4.2 4.0 76 1.7 SSE 13 19 7 10 1023.1 1023.1 0.0
08/07:30pm 8.7 4.3 4.5 75 1.9 SSE 17 22 9 12 1023.0 1023.0 0.0
08/07:00pm 9.5 4.6 5.1 74 2.0 S 20 28 11 15 1022.8 1022.8 0.0
08/06:30pm 10.2 5.4 5.8 74 2.0 S 20 26 11 14 1022.8 1022.8 0.0
08/06:00pm 10.3 4.7 5.5 72 2.2 S 24 30 13 16 1022.7 1022.7 0.0
08/05:30pm 10.0 4.7 4.8 70 2.3 S 22 28 12 15 1022.5 1022.5 0.0
08/05:00pm 10.2 5.2 4.6 68 2.5 S 20 24 11 13 1022.6 1022.6 0.0
08/04:30pm 10.4 5.6 4.5 67 2.6 S 19 22 10 12 1022.5 1022.5 0.0
08/04:00pm 10.9 6.8 4.6 65 2.8 S 15 19 8 10 1022.7 1022.7 0.0
08/03:30pm 11.1 7.5 5.0 66 2.8 SSW 13 15 7 8 1022.8 1022.8 0.0
08/03:00pm 11.0 7.7 4.5 64 2.9 SSW 11 13 6 7 1022.8 1022.8 0.0
08/02:30pm 11.0 8.0 4.2 63 3.0 SSW 9 13 5 7 1022.8 1022.8 0.0
08/02:00pm 11.1 8.5 4.3 63 3.0 SW 7 9 4 5 1023.1 1023.1 0.0
08/01:30pm 11.5 9.0 4.7 63 3.1 SW 7 9 4 5 1023.4 1023.4 0.0
08/01:00pm 11.4 9.4 4.4 62 3.1 WSW 4 6 2 3 1023.6 1023.6 0.0
08/12:30pm 11.8 10.0 5.4 65 3.0 N 4 6 2 3 1023.9 1023.9 0.0
08/12:00pm 10.5 8.0 4.6 67 2.6 NNE 7 9 4 5 1024.2 1024.2 0.0
08/11:30am 10.1 7.2 4.5 68 2.5 NE 9 11 5 6 1024.4 1024.4 0.0
08/11:00am 10.3 7.4 4.7 68 2.5 NE 9 13 5 7 1024.6 1024.6 0.0
08/10:30am 9.5 6.1 3.9 68 2.5 ENE 11 15 6 8 1024.7 1024.7 0.0
08/10:00am 8.7 5.7 3.9 72 2.1 E 9 13 5 7 1024.7 1024.7 0.0
08/09:30am 7.7 4.3 4.1 78 1.6 ENE 11 15 6 8 1024.8 1024.8 0.0
08/09:00am 6.3 2.4 3.5 82 1.2 E 13 19 7 10 1024.8 1024.8 0.0
08/08:30am 5.9 1.6 3.1 82 1.2 E 15 17 8 9 1024.6 1024.6 0.0
08/08:00am 5.3 0.5 2.8 84 1.0 E 17 19 9 10 1024.3 1024.3 0.0
08/07:30am 4.6 0.1 2.1 84 1.0 E 15 19 8 10 1024.1 1024.1 0.0
08/07:00am 4.9 0.0 2.3 83 1.0 E 17 20 9 11 1023.9 1023.9 0.0
08/06:30am 5.1 0.3 2.5 83 1.1 ESE 17 20 9 11 1023.8 1023.8 0.0
08/06:00am 5.3 0.1 2.7 83 1.1 ESE 19 22 10 12 1023.7 1023.7 0.0
08/05:30am 5.3 0.1 2.7 83 1.1 ESE 19 24 10 13 1023.7 1023.7 0.0
08/05:00am 5.3 0.1 2.5 82 1.1 E 19 22 10 12 1023.7 1023.7 0.0
08/04:30am 5.2 0.3 2.2 81 1.2 E 17 20 9 11 1023.8 1023.8 0.0
08/04:00am 5.3 0.0 2.0 79 1.3 E 19 22 10 12 1023.8 1023.8 0.0
08/03:30am 5.3 0.0 1.6 77 1.5 E 19 22 10 12 1023.8 1023.8 0.0
08/03:00am 6.0 0.5 2.1 76 1.6 ESE 20 24 11 13 1024.1 1024.1 0.0
08/02:30am 6.0 0.5 1.9 75 1.7 ESE 20 26 11 14 1024.4 1024.4 0.0
08/02:00am 6.3 0.9 2.2 75 1.7 ESE 20 24 11 13 1024.5 1024.5 0.0
08/01:30am 6.4 1.1 2.1 74 1.8 ESE 19 22 10 12 1024.6 1024.6 0.0
08/01:00am 6.4 1.5 2.1 74 1.7 ESE 17 19 9 10 1024.8 1024.8 0.0
08/12:30am 6.7 1.5 2.4 74 1.8 E 19 20 10 11 1024.9 1024.9 0.0
08/12:00am 6.7 1.8 2.2 73 1.8 ESE 17 20 9 11 1025.0 1025.0 0.0
 
Date/Time
EST
Temp
°C
App
Temp
°C
Dew
Point
°C
Rel
Hum
%
Delta-T
°C
Wind Press
QNH
hPa
Press
MSL
hPa
Rain since
9am
mm
Dir  Spd
km/h
Gust
km/h
Spd
kts
Gust
kts
07/11:30pm 6.6 1.7 2.1 73 1.8 E 17 20 9 11 1025.1 1025.1 0.0
07/11:00pm 6.3 1.4 1.8 73 1.8 E 17 20 9 11 1025.1 1025.1 0.0
07/10:30pm 6.4 2.2 1.7 72 1.9 ENE 13 15 7 8 1025.2 1025.2 0.0
07/10:00pm 6.8 3.0 1.9 71 2.0 E 11 15 6 8 1025.3 1025.3 0.0
07/09:30pm 7.9 2.7 2.6 69 2.2 ESE 19 24 10 13 1024.8 1024.8 0.0
07/09:00pm 8.1 3.2 2.1 66 2.5 E 17 22 9 12 1024.9 1024.9 0.0
07/08:30pm 8.7 2.6 2.5 65 2.6 ESE 24 35 13 19 1024.6 1024.6 0.0
07/08:00pm 8.8 2.7 2.6 65 2.6 ESE 24 32 13 17 1024.4 1024.4 0.0

Other formats

Comma delimited format used in spreadsheet applications
http://www.bom.gov.au/fwo/IDT60801/IDT60801.94974.axf

JavaScript Object Notation format (JSON) in row-major order
http://www.bom.gov.au/fwo/IDT60801/IDT60801.94974.json

Data quality

Most of these data are generated automatically and are frequently updated. Quality checks on data are not normally performed. It is possible for incorrect values to appear. Refer to information at About Latest Weather Observations and please check the disclaimer before using these data.